CheckWX is a tool to help pilots better visualize weather data.  It is not intended as a substitute for an official pre-flight weather briefing.

10:50:38 UTC

KTWF METAR
Joslin Field - Magic Valley Regional Airport
Twin Falls, Idaho, USA
Current

58 mins ago

KTWF 260953Z AUTO 22009KT 10SM CLR 15/04 A2987 RMK AO2 SLP060 T01500044
Observed
Jun-26 @ 09:53 UTC
Wind
  • 220° at 9 KTS
Visibility
10 SM
Flight Rules
VFR
Cloud Levels
  • Clear skies
Temperature
15°C / 59°F
Dewpoint
C / 39°F
Humidity
48%
Altimeter
29.87" Hg
Pressure
1011.52 hPa
Previous

2 hours ago

KTWF 260853Z AUTO 22012KT 10SM CLR 15/05 A2986 RMK AO2 SLP058 T01500050 51002
Observed
Jun-26 @ 08:53 UTC
Wind
  • 220° at 12 KTS
Visibility
10 SM
Flight Rules
VFR
Cloud Levels
  • Clear skies
Temperature
15°C / 59°F
Dewpoint
C / 41°F
Humidity
51%
Altimeter
29.86" Hg
Pressure
1011.22 hPa
Previous

3 hours ago

KTWF 260753Z AUTO 21012KT 10SM CLR 15/05 A2986 RMK AO2 SLP056 T01500050
Observed
Jun-26 @ 07:53 UTC
Wind
  • 210° at 12 KTS
Visibility
10 SM
Flight Rules
VFR
Cloud Levels
  • Clear skies
Temperature
15°C / 59°F
Dewpoint
C / 41°F
Humidity
51%
Altimeter
29.86" Hg
Pressure
1011.22 hPa